Time;durP1;ratioP1;P1;durP2;ratioP2;P2;SDS_P1;SDS_P2;PMS_P1;PMS_P2;Temp;Humidity;BMP_temperature;BMP_pressure;BME280_temperature;BME280_humidity;BME280_pressure;Samples;Min_cycle;Max_cycle;Signal;HPM_P1;HPM_P2
2022/03/21 00:02:03;;;;;;;21.47;12.57;;;11.00;44.80;;;;;;5069645;28;20176;-72
2022/03/21 00:04:29;;;;;;;27.13;13.87;;;11.00;44.50;;;;;;5064330;28;20239;-72
2022/03/21 00:06:54;;;;;;;17.27;12.10;;;10.90;45.30;;;;;;5084820;28;20453;-72
2022/03/21 00:09:20;;;;;;;16.90;12.37;;;10.90;45.00;;;;;;5069696;28;20204;-71
2022/03/21 00:11:45;;;;;;;17.70;10.53;;;10.80;45.40;;;;;;5052561;28;20177;-72
2022/03/21 00:14:11;;;;;;;17.50;11.67;;;10.80;45.70;;;;;;5048630;28;20169;-72
2022/03/21 00:16:37;;;;;;;15.53;11.23;;;10.80;46.50;;;;;;5048779;28;20220;-72
2022/03/21 00:19:03;;;;;;;23.60;11.90;;;10.80;46.50;;;;;;5048687;28;20454;-72
2022/03/21 00:21:29;;;;;;;22.00;12.03;;;10.80;46.50;;;;;;5067003;28;20423;-72
2022/03/21 00:23:55;;;;;;;17.63;11.10;;;10.70;46.90;;;;;;5055929;28;20717;-72
2022/03/21 00:26:20;;;;;;;17.87;12.17;;;10.70;47.00;;;;;;5070621;28;20184;-72
2022/03/21 00:28:46;;;;;;;18.70;11.20;;;10.70;47.10;;;;;;5089816;28;20237;-71
2022/03/21 00:31:13;;;;;;;19.83;11.33;;;10.70;47.00;;;;;;5081602;28;20192;-72
2022/03/21 00:33:39;;;;;;;15.20;11.13;;;10.60;47.00;;;;;;5061530;28;20480;-72
2022/03/21 00:36:07;;;;;;;19.43;11.83;;;10.30;47.20;;;;;;5069467;28;20423;-72
2022/03/21 00:38:34;;;;;;;25.33;10.90;;;10.60;47.30;;;;;;5069126;28;20229;-72
2022/03/21 00:41:00;;;;;;;19.23;12.07;;;10.50;47.20;;;;;;5065168;28;20870;-72
2022/03/21 00:43:26;;;;;;;18.83;11.60;;;10.50;47.60;;;;;;5064318;28;20517;-72
2022/03/21 00:45:57;;;;;;;16.43;11.30;;;10.50;48.10;;;;;;5068197;28;20656;-72
2022/03/21 00:48:23;;;;;;;19.50;11.50;;;10.50;48.60;;;;;;5048836;28;20903;-72
2022/03/21 00:50:50;;;;;;;18.10;10.80;;;10.40;49.10;;;;;;5049865;28;20519;-72
2022/03/21 00:53:16;;;;;;;18.13;11.03;;;10.40;48.70;;;;;;5048715;28;20420;-72
2022/03/21 00:55:42;;;;;;;15.77;10.97;;;10.40;48.60;;;;;;5075765;28;20861;-72
2022/03/21 00:58:08;;;;;;;19.63;11.63;;;10.30;49.50;;;;;;5078116;28;20487;-73
2022/03/21 01:00:34;;;;;;;15.80;10.90;;;10.30;49.70;;;;;;5069396;28;20192;-72
2022/03/21 01:03:01;;;;;;;14.73;11.10;;;10.30;49.40;;;;;;5063682;28;20871;-72
2022/03/21 01:05:27;;;;;;;16.40;10.87;;;10.30;49.40;;;;;;5068421;28;20172;-72
2022/03/21 01:07:54;;;;;;;17.67;11.30;;;10.30;51.50;;;;;;5066937;28;20488;-72
2022/03/21 01:10:22;;;;;;;16.03;10.87;;;10.20;50.10;;;;;;5066125;28;20524;-72
2022/03/21 01:12:50;;;;;;;17.53;11.47;;;10.20;50.50;;;;;;5066037;28;20465;-72
2022/03/21 01:15:18;;;;;;;19.33;11.93;;;10.30;50.60;;;;;;5067644;28;20480;-72
2022/03/21 01:17:44;;;;;;;14.90;10.40;;;10.20;48.00;;;;;;5049359;28;20534;-72
2022/03/21 01:20:11;;;;;;;18.70;11.10;;;10.20;50.00;;;;;;5050583;28;20427;-72
2022/03/21 01:22:37;;;;;;;17.03;10.60;;;10.10;49.80;;;;;;5047374;28;20892;-72
2022/03/21 01:25:03;;;;;;;16.10;10.17;;;10.20;49.80;;;;;;5058026;28;20434;-72
2022/03/21 01:27:29;;;;;;;17.03;10.20;;;10.10;47.90;;;;;;5067258;28;20195;-73
2022/03/21 01:29:55;;;;;;;15.57;10.70;;;10.10;50.30;;;;;;5067697;28;20196;-72
2022/03/21 01:32:21;;;;;;;20.50;11.90;;;10.10;49.90;;;;;;5066973;28;20521;-72
2022/03/21 01:34:46;;;;;;;14.93;10.60;;;10.10;50.30;;;;;;5062913;28;20429;-72
2022/03/21 01:37:12;;;;;;;14.27;10.43;;;10.10;49.90;;;;;;5064926;28;20189;-72
2022/03/21 01:39:38;;;;;;;20.47;10.33;;;10.10;49.60;;;;;;5062431;28;20200;-72
2022/03/21 01:42:04;;;;;;;15.33;10.57;;;10.00;49.90;;;;;;5066505;28;20176;-72
2022/03/21 01:44:30;;;;;;;14.73;10.20;;;10.10;48.50;;;;;;5060894;28;20204;-72
2022/03/21 01:46:55;;;;;;;13.33;10.10;;;10.10;47.40;;;;;;5052499;28;20436;-72
2022/03/21 01:49:21;;;;;;;18.37;10.87;;;10.00;47.70;;;;;;5070331;28;20701;-72
2022/03/21 01:51:46;;;;;;;17.47;11.10;;;10.10;46.90;;;;;;5086069;28;20208;-72
2022/03/21 01:56:57;;;;;;;14.57;10.10;;;10.00;47.60;;;;;;5076323;28;20180;-72
2022/03/21 01:59:24;;;;;;;16.80;10.77;;;9.90;49.50;;;;;;5066349;28;20530;-71
2022/03/21 02:01:49;;;;;;;14.50;10.13;;;9.90;48.40;;;;;;5067317;28;20680;-72
2022/03/21 02:04:15;;;;;;;20.17;10.43;;;9.90;47.40;;;;;;5063926;28;20435;-71
2022/03/21 02:06:45;;;;;;;14.77;10.03;;;9.90;49.30;;;;;;5063338;28;20164;-72
2022/03/21 02:09:11;;;;;;;14.43;10.00;;;10.00;48.10;;;;;;5067428;28;20740;-71
2022/03/21 02:11:37;;;;;;;15.63;9.93;;;9.90;48.30;;;;;;5067629;28;20453;-72
2022/03/21 02:14:06;;;;;;;14.90;9.90;;;9.90;50.10;;;;;;5054888;28;20419;-71
2022/03/21 02:16:33;;;;;;;15.03;10.57;;;9.80;50.00;;;;;;5047786;28;20515;-72
2022/03/21 02:19:04;;;;;;;15.83;10.10;;;9.80;49.40;;;;;;5048045;28;20443;-72
2022/03/21 02:21:58;;;;;;;15.53;10.30;;;9.80;49.80;;;;;;5047310;28;20454;-72
2022/03/21 02:24:56;;;;;;;15.17;10.20;;;9.80;49.20;;;;;;5053161;28;20411;-71
2022/03/21 02:27:25;;;;;;;13.40;9.67;;;9.80;49.00;;;;;;5061881;28;21080;-72
2022/03/21 02:29:52;;;;;;;15.33;10.30;;;9.80;49.10;;;;;;5067302;28;20476;-72
2022/03/21 02:32:19;;;;;;;13.80;9.87;;;9.80;49.70;;;;;;5061553;28;20434;-72
2022/03/21 02:34:46;;;;;;;15.90;10.53;;;9.70;49.30;;;;;;5064714;28;20418;-72
2022/03/21 02:37:18;;;;;;;14.30;10.10;;;9.70;49.30;;;;;;5066018;28;20433;-71
2022/03/21 02:39:44;;;;;;;13.73;9.93;;;9.70;50.10;;;;;;5067318;28;20438;-72
2022/03/21 02:42:11;;;;;;;14.53;9.80;;;9.60;49.30;;;;;;5067124;28;20470;-71
2022/03/21 02:44:38;;;;;;;12.73;9.87;;;9.70;49.40;;;;;;5063733;28;20952;-71
2022/03/21 02:47:05;;;;;;;16.40;9.87;;;9.60;49.50;;;;;;5066180;28;20940;-72
2022/03/21 02:49:31;;;;;;;13.70;8.83;;;9.60;49.30;;;;;;5063800;28;20444;-71
2022/03/21 02:52:01;;;;;;;14.13;10.00;;;9.70;48.90;;;;;;5047208;28;20506;-72
2022/03/21 02:54:27;;;;;;;11.67;9.03;;;9.70;48.50;;;;;;5069633;28;20210;-71
2022/03/21 02:56:54;;;;;;;15.13;10.43;;;9.70;49.60;;;;;;5079397;28;20437;-72
2022/03/21 02:59:19;;;;;;;14.83;10.27;;;9.60;48.70;;;;;;5066304;28;20489;-72
2022/03/21 03:01:45;;;;;;;19.33;10.60;;;9.60;49.30;;;;;;5066794;28;20492;-71
2022/03/21 03:04:11;;;;;;;13.10;9.30;;;9.60;49.50;;;;;;5054623;28;20223;-72
2022/03/21 03:06:39;;;;;;;13.90;10.13;;;9.70;49.00;;;;;;5067094;28;20180;-72
2022/03/21 03:09:06;;;;;;;12.77;9.17;;;9.60;49.00;;;;;;5067125;28;20674;-71
2022/03/21 03:11:31;;;;;;;14.10;10.33;;;9.60;47.40;;;;;;5057417;28;20462;-72
2022/03/21 03:13:57;;;;;;;13.60;10.00;;;9.60;48.20;;;;;;5066210;28;20819;-72
2022/03/21 03:16:22;;;;;;;14.97;10.37;;;9.60;48.80;;;;;;5062944;28;20639;-72
2022/03/21 03:18:48;;;;;;;14.80;10.43;;;9.60;49.80;;;;;;5048625;28;20209;-71
2022/03/21 03:21:19;;;;;;;14.67;9.90;;;9.50;48.80;;;;;;5051280;28;20180;-72
2022/03/21 03:23:46;;;;;;;13.10;9.50;;;9.50;48.30;;;;;;5053711;28;20185;-72
2022/03/21 03:26:11;;;;;;;13.07;9.20;;;9.50;48.80;;;;;;5076679;28;20776;-72
2022/03/21 03:28:38;;;;;;;13.10;9.67;;;9.50;47.70;;;;;;5070319;28;20448;-72
2022/03/21 03:31:04;;;;;;;13.50;8.80;;;9.40;48.20;;;;;;5065404;28;20638;-71
2022/03/21 03:33:30;;;;;;;11.90;8.80;;;9.50;48.50;;;;;;5070037;28;20530;-71
2022/03/21 03:35:56;;;;;;;14.30;10.00;;;9.40;48.80;;;;;;5066719;28;20177;-71
2022/03/21 03:38:22;;;;;;;13.43;9.40;;;9.40;48.30;;;;;;5051804;28;20450;-71
2022/03/21 03:40:47;;;;;;;13.40;10.17;;;9.40;48.70;;;;;;5051044;28;20185;-72
2022/03/21 03:43:15;;;;;;;14.53;10.00;;;9.30;48.30;;;;;;5049910;28;20444;-72
2022/03/21 03:45:42;;;;;;;14.13;9.33;;;9.30;48.50;;;;;;5051205;28;20188;-72
2022/03/21 03:48:08;;;;;;;14.77;10.17;;;9.30;48.80;;;;;;5050077;28;20456;-72
2022/03/21 03:50:34;;;;;;;17.57;10.00;;;9.30;48.90;;;;;;5060782;28;20962;-72
2022/03/21 03:52:59;;;;;;;14.20;9.60;;;9.30;48.50;;;;;;5069568;28;20473;-72
2022/03/21 03:55:26;;;;;;;20.40;9.70;;;9.20;48.10;;;;;;5076054;28;20168;-72
2022/03/21 03:57:52;;;;;;;12.87;9.20;;;9.20;49.60;;;;;;5070333;28;20207;-72
2022/03/21 04:00:18;;;;;;;14.50;10.03;;;9.20;49.20;;;;;;5069908;28;20434;-72
2022/03/21 04:05:29;;;;;;;13.37;10.10;;;9.10;50.30;;;;;;5071154;28;20413;-72
2022/03/21 04:07:54;;;;;;;17.00;9.87;;;9.10;50.10;;;;;;5064769;28;20451;-72
2022/03/21 04:10:21;;;;;;;12.17;8.60;;;9.10;50.10;;;;;;5050337;28;20501;-72
2022/03/21 04:12:48;;;;;;;13.93;9.33;;;9.10;50.80;;;;;;5051147;28;20177;-72
2022/03/21 04:15:15;;;;;;;12.80;9.17;;;9.00;50.30;;;;;;5070734;28;20431;-72
2022/03/21 04:17:41;;;;;;;11.60;8.40;;;9.00;51.30;;;;;;5067122;28;20426;-72
2022/03/21 04:20:07;;;;;;;13.87;9.10;;;9.00;52.00;;;;;;5060709;28;20444;-72
2022/03/21 04:22:34;;;;;;;15.67;10.10;;;8.90;52.00;;;;;;5049386;28;20709;-72
2022/03/21 04:25:00;;;;;;;13.80;9.60;;;8.90;50.90;;;;;;5062826;28;20459;-71
2022/03/21 04:27:26;;;;;;;12.97;9.03;;;8.90;51.70;;;;;;5080201;28;20892;-71
2022/03/21 04:29:51;;;;;;;14.50;9.20;;;8.90;49.60;;;;;;5080957;28;20208;-72
2022/03/21 04:32:17;;;;;;;13.00;9.07;;;8.80;52.70;;;;;;5067393;28;20195;-72
2022/03/21 04:34:43;;;;;;;16.17;9.90;;;8.90;51.60;;;;;;5065942;28;20219;-71
2022/03/21 04:37:08;;;;;;;14.03;10.10;;;8.90;52.50;;;;;;5069283;28;20668;-72
2022/03/21 04:39:34;;;;;;;12.67;9.20;;;8.90;53.40;;;;;;5068841;28;20537;-72
2022/03/21 04:41:59;;;;;;;13.07;8.83;;;8.80;52.50;;;;;;5069252;28;20179;-73
2022/03/21 04:44:26;;;;;;;13.00;9.23;;;8.90;52.50;;;;;;5063032;28;20169;-72
2022/03/21 04:46:51;;;;;;;14.30;9.33;;;8.90;51.30;;;;;;5048123;28;20220;-72
2022/03/21 04:49:17;;;;;;;18.33;10.60;;;8.80;52.00;;;;;;5049874;28;20523;-72
2022/03/21 04:51:42;;;;;;;12.67;8.70;;;8.80;52.30;;;;;;5064966;28;20201;-72
2022/03/21 04:54:08;;;;;;;14.67;9.50;;;8.80;51.10;;;;;;5053420;28;20614;-71
2022/03/21 04:56:33;;;;;;;14.27;9.50;;;8.80;52.50;;;;;;5067887;28;20545;-72
2022/03/21 04:58:59;;;;;;;16.43;9.30;;;8.70;52.20;;;;;;5068978;28;20279;-72
2022/03/21 05:01:24;;;;;;;11.93;8.90;;;8.70;53.90;;;;;;5068659;28;20168;-72
2022/03/21 05:03:50;;;;;;;13.53;9.07;;;8.60;53.10;;;;;;5049547;28;20213;-71
2022/03/21 05:06:17;;;;;;;13.53;9.17;;;8.60;53.20;;;;;;5050126;28;20165;-71
2022/03/21 05:08:43;;;;;;;13.83;9.73;;;8.60;52.90;;;;;;5051692;28;20515;-72
2022/03/21 05:11:09;;;;;;;14.63;9.53;;;8.60;53.30;;;;;;5068645;28;20778;-72
2022/03/21 05:13:35;;;;;;;12.87;9.00;;;8.50;53.90;;;;;;5076008;28;20432;-72
2022/03/21 05:16:00;;;;;;;14.20;8.70;;;8.50;53.90;;;;;;5073976;28;20725;-72
2022/03/21 05:18:27;;;;;;;13.33;9.23;;;8.50;54.00;;;;;;5062152;28;20649;-72
2022/03/21 05:20:52;;;;;;;14.57;9.10;;;8.50;54.30;;;;;;5066878;28;20673;-72
2022/03/21 05:31:30;;;;;;;16.30;10.83;;;8.30;54.80;;;;;;5050637;28;21600;-72
2022/03/21 05:36:39;;;;;;;13.43;9.20;;;8.30;55.30;;;;;;5064043;28;20317;-71
2022/03/21 05:39:05;;;;;;;16.23;10.00;;;8.40;56.20;;;;;;5066689;28;20530;-71
2022/03/21 05:41:30;;;;;;;14.03;9.67;;;8.30;55.20;;;;;;5066399;28;20321;-72
2022/03/21 05:43:56;;;;;;;18.00;9.50;;;8.40;56.20;;;;;;5066456;28;20195;-72
2022/03/21 05:46:22;;;;;;;16.83;9.30;;;8.40;56.00;;;;;;5060656;28;20681;-72
2022/03/21 05:48:59;;;;;;;15.33;9.70;;;8.50;55.30;;;;;;5060941;28;20575;-72
2022/03/21 05:51:34;;;;;;;12.30;9.50;;;8.50;56.00;;;;;;5057908;28;20696;-71
2022/03/21 05:54:02;;;;;;;13.37;9.40;;;8.50;55.50;;;;;;5069025;28;20934;-72
2022/03/21 05:56:28;;;;;;;15.13;9.73;;;8.50;54.60;;;;;;5078557;28;20410;-72
2022/03/21 05:58:56;;;;;;;17.83;10.20;;;8.60;55.70;;;;;;5072921;28;20497;-72
2022/03/21 06:01:22;;;;;;;14.90;9.60;;;8.60;55.30;;;;;;5067777;28;20939;-71
2022/03/21 06:03:53;;;;;;;11.77;9.20;;;8.70;55.60;;;;;;5063249;28;20509;-71
2022/03/21 06:06:20;;;;;;;14.25;9.02;;;8.80;55.10;;;;;;5058318;28;20426;-72
2022/03/21 06:08:45;;;;;;;13.83;9.17;;;8.90;54.40;;;;;;5061525;28;20204;-72
2022/03/21 06:11:12;;;;;;;15.20;10.17;;;8.90;54.60;;;;;;5060884;28;20546;-73
2022/03/21 06:13:42;;;;;;;28.33;10.00;;;9.00;55.30;;;;;;5057748;28;20177;-73
2022/03/21 06:16:08;;;;;;;13.10;9.20;;;9.00;55.00;;;;;;5048872;28;20400;-73
2022/03/21 06:18:35;;;;;;;12.40;9.13;;;9.10;54.20;;;;;;5065710;28;20525;-73
2022/03/21 06:21:02;;;;;;;14.70;9.60;;;9.10;54.00;;;;;;5076601;28;20435;-74
2022/03/21 06:23:28;;;;;;;12.90;9.20;;;9.20;54.60;;;;;;5047220;28;20497;-73
2022/03/21 06:25:55;;;;;;;16.13;9.20;;;9.40;53.50;;;;;;5069662;28;20952;-73
2022/03/21 06:28:22;;;;;;;17.17;9.87;;;9.70;51.60;;;;;;5066983;28;20427;-73
2022/03/21 06:30:50;;;;;;;12.73;9.23;;;10.00;48.10;;;;;;5059567;28;20462;-73
2022/03/21 06:33:16;;;;;;;17.80;10.03;;;10.40;47.30;;;;;;5071236;28;20430;-72
2022/03/21 06:35:41;;;;;;;15.30;9.87;;;10.70;44.10;;;;;;5064743;28;20810;-72
2022/03/21 06:38:07;;;;;;;13.53;9.80;;;11.00;39.40;;;;;;5066862;28;20253;-73
2022/03/21 06:40:33;;;;;;;14.83;10.37;;;11.20;39.10;;;;;;5059581;28;20185;-73
2022/03/21 06:42:59;;;;;;;12.57;9.70;;;11.40;39.40;;;;;;5045497;28;20572;-73
2022/03/21 06:45:24;;;;;;;15.63;10.20;;;11.30;39.10;;;;;;5055164;28;20437;-73
2022/03/21 06:47:50;;;;;;;13.47;9.13;;;11.10;39.20;;;;;;5062043;28;20199;-73
2022/03/21 06:50:15;;;;;;;13.60;9.90;;;11.10;39.30;;;;;;5079009;28;20208;-73
2022/03/21 06:52:43;;;;;;;12.63;9.47;;;11.10;39.00;;;;;;5074520;28;20169;-73
2022/03/21 06:55:10;;;;;;;16.63;10.60;;;11.50;39.30;;;;;;5064396;28;20661;-73
2022/03/21 06:57:35;;;;;;;18.57;11.50;;;11.80;39.50;;;;;;5061489;28;20423;-73
2022/03/21 07:00:02;;;;;;;15.70;9.37;;;11.90;39.60;;;;;;5052255;28;20447;-73
2022/03/21 07:02:28;;;;;;;13.67;10.00;;;11.80;39.50;;;;;;5064024;28;20278;-73
2022/03/21 07:04:54;;;;;;;16.20;9.80;;;11.60;39.40;;;;;;5051813;28;20408;-73
2022/03/21 07:07:20;;;;;;;14.70;9.23;;;11.30;39.10;;;;;;5064220;28;20488;-73
2022/03/21 07:09:45;;;;;;;15.40;10.43;;;11.10;39.00;;;;;;5068771;28;20254;-73
2022/03/21 07:12:11;;;;;;;13.67;10.00;;;11.10;39.20;;;;;;5070558;28;20172;-73
2022/03/21 07:14:36;;;;;;;17.30;10.30;;;11.10;39.00;;;;;;5070935;28;20619;-73
2022/03/21 07:17:02;;;;;;;12.93;9.73;;;11.20;39.00;;;;;;5055383;28;20239;-73
2022/03/21 07:19:28;;;;;;;14.07;10.53;;;11.20;39.10;;;;;;5048759;28;20276;-73
2022/03/21 07:21:53;;;;;;;11.60;9.27;;;11.20;39.10;;;;;;5051039;28;20165;-73
2022/03/21 07:24:19;;;;;;;14.87;9.63;;;11.10;39.10;;;;;;5060368;28;20625;-73
2022/03/21 07:26:45;;;;;;;13.07;9.70;;;11.20;39.10;;;;;;5079240;28;20173;-73
2022/03/21 07:29:12;;;;;;;13.80;9.70;;;11.30;39.40;;;;;;5069049;28;20273;-73
2022/03/21 07:31:38;;;;;;;12.70;9.40;;;11.40;39.30;;;;;;5068833;28;20196;-73
2022/03/21 07:34:03;;;;;;;15.07;9.70;;;11.50;39.30;;;;;;5070147;28;20787;-73
2022/03/21 07:36:29;;;;;;;13.20;10.20;;;11.60;39.40;;;;;;5067934;28;20250;-73
2022/03/21 07:38:56;;;;;;;12.80;9.37;;;11.70;39.50;;;;;;5055988;28;20199;-72
2022/03/21 07:41:23;;;;;;;16.23;10.50;;;11.80;39.50;;;;;;5054634;28;20188;-74
2022/03/21 07:43:49;;;;;;;16.50;9.57;;;12.00;39.70;;;;;;5050434;28;20928;-73
2022/03/21 07:48:59;;;;;;;13.30;9.70;;;12.30;39.90;;;;;;5064647;28;20219;-73
2022/03/21 07:51:25;;;;;;;14.10;10.10;;;12.60;40.20;;;;;;5060109;28;20980;-73
2022/03/21 07:53:50;;;;;;;16.57;10.47;;;12.80;40.30;;;;;;5060601;28;20188;-73
2022/03/21 07:56:16;;;;;;;14.30;10.57;;;13.00;40.50;;;;;;5080355;28;20217;-73
2022/03/21 07:58:41;;;;;;;14.40;10.30;;;13.00;40.40;;;;;;5067534;28;20688;-73
2022/03/21 08:01:07;;;;;;;16.47;10.83;;;13.00;40.50;;;;;;5062996;28;20200;-72
2022/03/21 08:03:33;;;;;;;14.10;10.50;;;13.20;40.70;;;;;;5060688;28;20276;-73
2022/03/21 08:05:59;;;;;;;14.77;10.40;;;13.60;41.10;;;;;;5065123;28;20325;-72
2022/03/21 08:08:26;;;;;;;12.33;9.43;;;13.80;41.30;;;;;;5075683;28;20195;-72
2022/03/21 08:10:52;;;;;;;14.47;10.40;;;14.30;41.70;;;;;;5091617;28;20449;-73
2022/03/21 08:13:19;;;;;;;16.77;11.70;;;14.70;42.00;;;;;;5069516;28;20565;-73
2022/03/21 08:15:45;;;;;;;14.40;11.50;;;15.30;42.50;;;;;;5069995;28;20476;-73
2022/03/21 08:18:15;;;;;;;18.43;12.67;;;15.90;42.80;;;;;;5051209;28;20875;-73
2022/03/21 08:20:43;;;;;;;20.00;13.30;;;16.30;37.90;;;;;;5049126;28;20402;-73
2022/03/21 08:23:11;;;;;;;18.37;13.73;;;16.50;36.70;;;;;;5050860;28;20450;-73
2022/03/21 08:25:39;;;;;;;17.70;13.50;;;16.90;32.30;;;;;;5076489;28;20474;-73
2022/03/21 08:28:06;;;;;;;16.70;13.40;;;17.10;31.70;;;;;;5064950;28;20437;-74
2022/03/21 08:30:35;;;;;;;19.20;14.70;;;17.30;26.20;;;;;;5065984;28;20446;-74
2022/03/21 08:33:02;;;;;;;18.93;14.13;;;17.50;27.70;;;;;;5065255;28;20521;-74
2022/03/21 08:35:28;;;;;;;18.73;13.80;;;18.20;26.00;;;;;;5069956;28;20422;-74
2022/03/21 08:37:53;;;;;;;18.47;14.03;;;19.20;23.00;;;;;;5070266;28;20553;-74
2022/03/21 08:40:19;;;;;;;24.67;14.77;;;19.70;22.60;;;;;;5066192;28;20241;-74
2022/03/21 08:42:45;;;;;;;18.63;14.47;;;20.20;20.80;;;;;;5067786;28;20202;-74
2022/03/21 08:45:12;;;;;;;17.50;14.27;;;20.70;17.50;;;;;;5067306;28;20251;-74
2022/03/21 08:47:38;;;;;;;18.67;14.20;;;21.10;17.10;;;;;;5056136;28;20431;-74
2022/03/21 08:50:05;;;;;;;19.87;14.70;;;21.50;17.00;;;;;;5068218;28;20457;-74
2022/03/21 08:52:31;;;;;;;17.03;14.20;;;21.80;13.70;;;;;;5063969;28;20194;-74
2022/03/21 08:54:57;;;;;;;15.67;13.20;;;21.60;14.40;;;;;;5068740;28;20868;-73
2022/03/21 08:57:22;;;;;;;21.00;15.20;;;21.50;17.00;;;;;;5073556;28;20214;-74
2022/03/21 08:59:48;;;;;;;20.37;14.00;;;22.30;14.60;;;;;;5068663;28;20241;-74
2022/03/21 09:02:15;;;;;;;17.60;13.70;;;22.00;13.60;;;;;;5069238;28;20172;-74
2022/03/21 09:04:41;;;;;;;16.53;13.97;;;22.60;14.70;;;;;;5068496;28;20372;-74
2022/03/21 09:07:09;;;;;;;18.00;14.03;;;23.50;12.30;;;;;;5065213;28;20458;-74
2022/03/21 09:09:35;;;;;;;20.30;14.70;;;24.10;9.50;;;;;;5056247;28;20207;-74
2022/03/21 09:12:01;;;;;;;16.90;14.30;;;24.30;8.30;;;;;;5066974;28;20469;-74
2022/03/21 09:14:26;;;;;;;19.77;14.83;;;24.40;9.10;;;;;;5068243;28;20208;-74
2022/03/21 09:16:53;;;;;;;18.77;14.60;;;24.80;8.00;;;;;;5053325;28;20657;-74
2022/03/21 09:19:19;;;;;;;19.07;13.90;;;25.00;6.70;;;;;;5048601;28;20220;-74
2022/03/21 09:21:46;;;;;;;18.15;14.80;;;25.30;7.20;;;;;;5049115;28;20428;-74
2022/03/21 09:24:11;;;;;;;17.37;14.77;;;26.00;4.10;;;;;;5051166;28;20211;-74
2022/03/21 09:26:37;;;;;;;18.30;14.50;;;26.90;2.90;;;;;;5059031;28;20172;-74
2022/03/21 09:29:04;;;;;;;17.10;14.60;;;26.80;3.40;;;;;;5056995;28;20226;-73
2022/03/21 09:31:31;;;;;;;16.83;14.10;;;26.90;2.20;;;;;;5059764;28;20593;-73
2022/03/21 09:33:56;;;;;;;16.65;14.85;;;27.20;1.00;;;;;;5067177;28;20176;-73
2022/03/21 09:36:22;;;;;;;18.15;14.75;;;27.90;1.00;;;;;;5064731;28;20221;-73
2022/03/21 09:38:49;;;;;;;17.67;14.73;;;28.20;1.00;;;;;;5049268;28;20196;-73
2022/03/21 09:41:22;;;;;;;16.20;14.25;;;27.80;1.00;;;;;;5060202;28;20198;-74
2022/03/21 09:43:55;;;;;;;20.17;14.48;;;27.60;1.00;;;;;;5057732;28;20183;-73
2022/03/21 09:46:21;;;;;;;17.88;14.32;;;27.80;1.00;;;;;;5056775;28;20559;-73
2022/03/21 09:48:48;;;;;;;18.08;15.32;;;28.10;1.00;;;;;;5048995;28;20193;-73
2022/03/21 09:51:20;;;;;;;20.67;15.38;;;28.50;1.00;;;;;;5050133;28;20201;-73
2022/03/21 09:53:46;;;;;;;18.85;15.82;;;28.60;1.00;;;;;;5061921;28;20220;-73
2022/03/21 09:56:12;;;;;;;22.92;15.98;;;28.70;1.00;;;;;;5067937;28;20227;-73
2022/03/21 09:58:37;;;;;;;17.75;15.73;;;29.00;1.00;;;;;;5066019;28;20207;-73
2022/03/21 10:01:03;;;;;;;17.63;14.80;;;29.70;1.00;;;;;;5065999;28;20629;-73
2022/03/21 10:03:29;;;;;;;16.85;15.05;;;30.60;1.00;;;;;;5068670;28;20171;-73
2022/03/21 10:05:54;;;;;;;17.58;15.25;;;30.70;1.00;;;;;;5064981;28;20183;-74
2022/03/21 10:08:27;;;;;;;18.23;15.00;;;30.00;1.00;;;;;;5068165;28;20275;-73
2022/03/21 10:10:58;;;;;;;17.88;14.95;;;30.00;1.00;;;;;;5049564;28;20196;-74
2022/03/21 10:13:26;;;;;;;19.05;15.90;;;30.40;1.00;;;;;;5048454;28;20247;-73
2022/03/21 10:16:13;;;;;;;18.23;14.82;;;30.60;1.00;;;;;;5056073;28;20192;-73
2022/03/21 10:18:55;;;;;;;20.73;16.13;;;30.90;1.00;;;;;;5067887;28;20207;-73
2022/03/21 10:21:24;;;;;;;20.67;15.48;;;30.60;1.00;;;;;;5046968;28;20183;-73
2022/03/21 10:24:07;;;;;;;18.42;15.95;;;30.70;1.00;;;;;;5052623;28;20576;-73
2022/03/21 10:26:40;;;;;;;22.85;15.52;;;31.60;1.00;;;;;;5070686;28;20180;-74
2022/03/21 10:29:10;;;;;;;21.52;15.60;;;31.60;1.00;;;;;;5048049;28;20223;-73
2022/03/21 10:31:47;;;;;;;19.02;15.88;;;31.90;1.00;;;;;;5048621;28;20216;-73
2022/03/21 10:34:17;;;;;;;17.23;14.70;;;32.50;1.00;;;;;;5055374;28;20182;-73
2022/03/21 10:37:14;;;;;;;19.67;15.35;;;33.00;1.00;;;;;;5068850;28;20532;-74
2022/03/21 10:39:50;;;;;;;20.15;15.98;;;33.70;1.00;;;;;;5044527;28;20200;-74
2022/03/21 10:42:16;;;;;;;17.75;15.85;;;33.20;1.00;;;;;;5052091;28;20244;-74
2022/03/21 10:44:54;;;;;;;17.27;15.43;;;33.30;1.00;;;;;;5057305;28;20494;-73
2022/03/21 10:47:19;;;;;;;18.23;16.30;;;33.50;1.00;;;;;;5055801;28;20183;-73
2022/03/21 10:49:45;;;;;;;21.63;16.52;;;33.00;1.00;;;;;;5067196;28;20203;-73
2022/03/21 10:52:19;;;;;;;20.80;16.70;;;32.50;1.00;;;;;;5060688;28;20360;-73
2022/03/21 10:54:49;;;;;;;21.35;16.60;;;32.70;1.00;;;;;;5065538;28;20558;-73
2022/03/21 10:57:36;;;;;;;17.67;15.77;;;33.20;1.00;;;;;;5067650;28;20164;-73
2022/03/21 11:00:26;;;;;;;18.35;16.27;;;33.40;1.00;;;;;;5060744;28;20567;-73
2022/03/21 11:03:03;;;;;;;19.67;16.38;;;32.80;1.00;;;;;;5047593;28;20191;-73
2022/03/21 11:05:32;;;;;;;19.02;16.02;;;32.80;1.00;;;;;;5048527;28;20168;-74
2022/03/21 11:07:58;;;;;;;24.50;16.40;;;32.30;1.00;;;;;;5048700;28;20219;-73
2022/03/21 11:10:25;;;;;;;18.35;16.25;;;32.80;1.00;;;;;;5061358;28;20254;-73
2022/03/21 11:12:51;;;;;;;17.08;15.27;;;33.20;1.00;;;;;;5064955;28;20176;-73
2022/03/21 11:15:17;;;;;;;19.35;14.40;;;33.20;1.00;;;;;;5053755;28;20233;-73
2022/03/21 11:17:43;;;;;;;17.58;15.70;;;34.10;1.00;;;;;;5066693;28;20259;-72
2022/03/21 11:20:10;;;;;;;19.50;15.63;;;34.10;1.00;;;;;;5066716;28;20788;-73
2022/03/21 11:22:38;;;;;;;20.85;16.65;;;34.10;1.00;;;;;;5064839;28;20209;-73
2022/03/21 11:25:06;;;;;;;19.23;15.98;;;34.00;1.00;;;;;;5072526;28;20179;-74
2022/03/21 11:28:09;;;;;;;20.05;16.73;;;33.00;1.00;;;;;;5068799;28;20191;-73
2022/03/21 11:30:38;;;;;;;17.58;15.65;;;33.10;1.00;;;;;;5048245;28;20211;-73
2022/03/21 11:33:25;;;;;;;17.38;14.85;;;33.80;1.00;;;;;;5059355;28;20160;-73
2022/03/21 11:35:59;;;;;;;18.85;15.15;;;34.10;1.00;;;;;;5057567;28;20169;-73
2022/03/21 11:38:27;;;;;;;20.17;17.02;;;34.00;1.00;;;;;;5061023;28;20199;-73
2022/03/21 11:41:12;;;;;;;20.52;17.02;;;33.70;1.00;;;;;;5069369;28;20254;-73
2022/03/21 11:43:40;;;;;;;19.85;16.40;;;33.20;1.00;;;;;;5062491;28;20177;-73
2022/03/21 11:46:29;;;;;;;19.40;16.83;;;33.50;1.00;;;;;;5051314;28;20202;-73
2022/03/21 11:48:58;;;;;;;20.80;16.30;;;33.50;1.00;;;;;;5051040;28;20270;-73
2022/03/21 11:51:26;;;;;;;26.15;17.15;;;33.00;1.00;;;;;;5052231;28;20283;-73
2022/03/21 11:53:53;;;;;;;19.92;16.60;;;32.60;1.00;;;;;;5056113;28;20263;-73
2022/03/21 11:56:43;;;;;;;19.25;16.73;;;32.40;1.00;;;;;;5078801;28;20171;-73
2022/03/21 11:59:09;;;;;;;18.38;16.02;;;32.20;1.00;;;;;;5069168;28;20278;-73
2022/03/21 12:01:34;;;;;;;19.15;14.82;;;32.10;1.00;;;;;;5066270;28;20676;-74
2022/03/21 12:04:25;;;;;;;18.10;14.27;;;32.60;1.00;;;;;;5062937;28;20275;-73
2022/03/21 12:06:56;;;;;;;18.88;15.90;;;33.10;1.00;;;;;;5070522;28;20278;-74
2022/03/21 12:09:22;;;;;;;19.50;16.55;;;33.70;1.00;;;;;;5066269;28;20196;-73
2022/03/21 12:11:48;;;;;;;19.63;16.80;;;33.50;1.00;;;;;;5057445;28;20218;-73
2022/03/21 12:14:27;;;;;;;20.88;16.70;;;33.20;1.00;;;;;;5068882;28;20225;-73
2022/03/21 12:17:01;;;;;;;21.05;17.45;;;32.40;1.00;;;;;;5064395;28;20191;-73
2022/03/21 12:19:48;;;;;;;23.38;18.08;;;31.70;1.00;;;;;;5070602;28;20243;-73
2022/03/21 12:22:39;;;;;;;21.48;17.00;;;31.20;1.00;;;;;;5066036;28;20579;-73
2022/03/21 12:25:35;;;;;;;21.75;17.73;;;31.60;1.00;;;;;;5071452;28;20668;-73
2022/03/21 12:31:26;;;;;;;20.88;18.65;;;29.40;1.00;;;;;;5053660;28;20455;-73
2022/03/21 12:33:52;;;;;;;20.90;17.70;;;30.30;1.00;;;;;;5066448;28;20186;-73
2022/03/21 12:36:31;;;;;;;26.58;18.88;;;30.70;1.00;;;;;;5066847;28;20639;-73
2022/03/21 12:38:57;;;;;;;30.05;18.27;;;30.90;1.00;;;;;;5065723;28;20243;-73
2022/03/21 12:41:32;;;;;;;21.63;18.75;;;30.80;1.00;;;;;;5063366;28;20224;-72
2022/03/21 12:43:58;;;;;;;23.70;17.88;;;30.80;1.00;;;;;;5065958;28;20330;-73
2022/03/21 12:46:24;;;;;;;24.10;19.23;;;31.00;1.00;;;;;;5053414;28;20180;-73
2022/03/21 12:48:57;;;;;;;25.08;18.23;;;31.00;1.00;;;;;;5059636;28;20189;-73
2022/03/21 12:51:28;;;;;;;24.13;19.33;;;30.10;1.00;;;;;;5058133;28;20582;-73
2022/03/21 12:53:56;;;;;;;26.40;18.67;;;29.50;1.00;;;;;;5056025;28;20658;-73
2022/03/21 12:56:24;;;;;;;23.45;18.40;;;29.10;1.00;;;;;;5082092;28;20179;-73
2022/03/21 12:58:56;;;;;;;22.85;18.75;;;28.60;1.00;;;;;;5076212;28;20665;-73
2022/03/21 13:01:22;;;;;;;23.75;18.65;;;28.30;1.00;;;;;;5063472;28;20187;-73
2022/03/21 13:03:55;;;;;;;24.23;19.50;;;28.20;1.00;;;;;;5067676;28;20671;-72